createdAt,value
2019-03-23T00:02:04.885Z,69.93
2019-03-23T00:04:33.032Z,62.00
2019-03-23T00:07:01.184Z,65.50
2019-03-23T00:09:33.970Z,65.93
2019-03-23T00:12:04.064Z,62.00
2019-03-23T00:14:33.072Z,66.87
2019-03-23T00:17:02.481Z,65.73
2019-03-23T00:19:33.351Z,70.30
2019-03-23T00:22:07.881Z,66.83
2019-03-23T00:24:38.960Z,61.80
2019-03-23T00:27:08.106Z,70.13
2019-03-23T00:29:43.488Z,65.70
2019-03-23T00:32:17.102Z,65.40
2019-03-23T00:34:46.727Z,63.97
2019-03-23T00:37:16.503Z,59.33
2019-03-23T00:39:44.651Z,66.07
2019-03-23T00:42:12.843Z,65.97
2019-03-23T00:44:40.981Z,61.73
2019-03-23T00:47:09.135Z,57.93
2019-03-23T00:49:37.303Z,64.03
2019-03-23T00:52:05.449Z,63.17
2019-03-23T00:54:33.670Z,63.70
2019-03-23T00:57:03.356Z,58.90
2019-03-23T00:59:35.162Z,60.53
2019-03-23T01:02:03.798Z,60.27
2019-03-23T01:04:32.140Z,56.70
2019-03-23T01:07:00.285Z,56.80
2019-03-23T01:09:28.422Z,61.27
2019-03-23T01:11:56.701Z,56.60
2019-03-23T01:14:26.686Z,57.07
2019-03-23T01:16:57.585Z,59.30
2019-03-23T01:19:26.557Z,56.70
2019-03-23T01:21:56.266Z,65.25
2019-03-23T01:24:26.044Z,61.07
2019-03-23T01:26:54.249Z,59.03
2019-03-23T01:29:22.411Z,58.87
2019-03-23T01:31:50.556Z,55.90
2019-03-23T01:34:20.769Z,63.57
2019-03-23T01:36:48.977Z,59.23
2019-03-23T01:39:19.676Z,63.97
2019-03-23T01:41:50.195Z,59.70
2019-03-23T01:44:18.708Z,59.07
2019-03-23T01:46:48.487Z,64.55
2019-03-23T01:49:17.017Z,62.50
2019-03-23T01:51:45.464Z,62.53
2019-03-23T01:54:15.334Z,63.67
2019-03-23T01:56:43.633Z,58.20
2019-03-23T01:59:11.816Z,62.67
2019-03-23T02:01:39.920Z,63.20
2019-03-23T02:04:08.130Z,65.87
2019-03-23T02:06:36.281Z,62.73
2019-03-23T02:09:05.885Z,63.97
2019-03-23T02:11:34.096Z,66.33
2019-03-23T02:14:04.248Z,68.83
2019-03-23T02:16:34.196Z,63.30
2019-03-23T02:19:04.471Z,68.57
2019-03-23T02:21:33.696Z,65.63
2019-03-23T02:24:01.887Z,62.20
2019-03-23T02:26:30.031Z,69.80
2019-03-23T02:28:58.167Z,65.50
2019-03-23T02:31:26.320Z,75.10
2019-03-23T02:33:54.497Z,71.33
2019-03-23T02:36:22.666Z,66.87
2019-03-23T02:38:50.824Z,68.67
2019-03-23T02:41:18.992Z,63.93
2019-03-23T02:43:47.136Z,69.73
2019-03-23T02:46:15.294Z,69.40
2019-03-23T02:48:43.452Z,71.33
2019-03-23T02:51:11.696Z,71.77
2019-03-23T02:53:40.133Z,72.20
2019-03-23T02:56:08.318Z,64.17
2019-03-23T02:58:36.530Z,74.67
2019-03-23T03:01:05.112Z,64.57
2019-03-23T03:03:33.290Z,62.93
2019-03-23T03:06:01.503Z,67.23
2019-03-23T03:08:29.636Z,63.37
2019-03-23T03:11:00.405Z,61.70
2019-03-23T03:13:28.549Z,63.87
2019-03-23T03:16:00.254Z,70.47
2019-03-23T03:18:28.161Z,65.87
2019-03-23T03:20:56.309Z,74.57
2019-03-23T03:23:24.448Z,64.03
2019-03-23T03:25:52.633Z,64.50
2019-03-23T03:28:20.790Z,66.47
2019-03-23T03:30:48.943Z,67.63
2019-03-23T03:33:17.116Z,60.00
2019-03-23T03:35:46.207Z,64.97
2019-03-23T03:38:14.349Z,67.80
2019-03-23T03:40:42.539Z,61.37
2019-03-23T03:43:10.668Z,64.80
2019-03-23T03:45:38.817Z,61.93
2019-03-23T03:48:07.290Z,66.27
2019-03-23T03:50:35.444Z,64.27
2019-03-23T03:53:03.596Z,65.00
2019-03-23T03:55:31.774Z,63.30
2019-03-23T03:57:59.919Z,64.80
2019-03-23T04:00:28.155Z,61.47
2019-03-23T04:03:10.972Z,60.23
2019-03-23T04:08:26.406Z,65.67
2019-03-23T04:10:54.554Z,62.57
2019-03-23T04:13:22.700Z,65.07
2019-03-23T04:15:51.941Z,61.30
2019-03-23T04:18:20.149Z,56.83
2019-03-23T04:20:48.268Z,61.67
2019-03-23T04:23:16.483Z,59.33
2019-03-23T04:25:44.625Z,55.07
2019-03-23T04:28:12.781Z,56.70
2019-03-23T04:30:40.957Z,58.07
2019-03-23T04:33:09.101Z,56.77
2019-03-23T04:35:37.247Z,60.33
2019-03-23T04:38:05.421Z,55.90
2019-03-23T04:40:33.556Z,55.30
2019-03-23T04:43:01.943Z,60.90
2019-03-23T04:45:30.436Z,59.80
2019-03-23T04:47:59.282Z,55.97
2019-03-23T04:50:27.712Z,59.37
2019-03-23T04:52:58.428Z,57.17
2019-03-23T04:55:30.517Z,56.77
2019-03-23T05:00:52.427Z,57.40
2019-03-23T05:03:22.442Z,54.23
2019-03-23T05:05:51.742Z,54.27
2019-03-23T05:08:21.062Z,53.00
2019-03-23T05:10:49.216Z,55.17
2019-03-23T05:13:20.803Z,54.40
2019-03-23T05:15:54.185Z,53.33
2019-03-23T05:18:41.172Z,54.93
2019-03-23T05:21:10.940Z,52.77
2019-03-23T05:23:42.528Z,51.03
2019-03-23T05:29:00.448Z,54.37
2019-03-23T05:31:33.013Z,52.20
2019-03-23T05:34:02.792Z,52.30
2019-03-23T05:36:37.605Z,48.40
2019-03-23T05:39:11.075Z,55.20
2019-03-23T05:41:51.280Z,50.83
2019-03-23T05:44:19.417Z,45.10
2019-03-23T05:46:48.158Z,52.60
2019-03-23T05:49:16.297Z,46.60
2019-03-23T05:51:44.431Z,48.27
2019-03-23T05:54:12.601Z,52.50
2019-03-23T05:56:40.747Z,48.23
2019-03-23T05:59:08.969Z,48.53
2019-03-23T06:01:37.135Z,46.80
2019-03-23T06:04:05.305Z,49.60
2019-03-23T06:06:33.454Z,46.50
2019-03-23T06:09:01.642Z,50.60
2019-03-23T06:11:29.774Z,47.97
2019-03-23T06:14:02.359Z,47.10
2019-03-23T06:16:34.056Z,48.90
2019-03-23T06:19:02.144Z,52.98
2019-03-23T06:21:35.117Z,52.03
2019-03-23T06:24:04.213Z,50.30
2019-03-23T06:26:33.659Z,50.00
2019-03-23T06:29:01.977Z,52.77
2019-03-23T06:31:30.972Z,51.07
2019-03-23T06:33:59.120Z,50.83
2019-03-23T06:36:28.893Z,50.30
2019-03-23T06:39:05.707Z,52.63
2019-03-23T06:41:34.949Z,55.97
2019-03-23T06:44:07.634Z,51.70
2019-03-23T06:46:42.273Z,55.60
2019-03-23T06:49:10.869Z,53.40
2019-03-23T06:51:41.502Z,46.60
2019-03-23T06:54:23.847Z,50.10
2019-03-23T06:56:41.111Z,55.27
2019-03-23T06:59:11.843Z,50.27
2019-03-23T07:01:39.976Z,54.20
2019-03-23T07:04:30.762Z,60.10
2019-03-23T07:07:02.589Z,56.80
2019-03-23T07:09:34.095Z,48.93
2019-03-23T07:12:03.880Z,55.33
2019-03-23T07:14:32.022Z,53.37
2019-03-23T07:17:00.181Z,53.90
2019-03-23T07:19:28.350Z,54.40
2019-03-23T07:21:56.492Z,50.40
2019-03-23T07:24:24.637Z,54.90
2019-03-23T07:26:52.833Z,51.13
2019-03-23T07:29:26.983Z,54.47
2019-03-23T07:32:05.281Z,56.75
2019-03-23T07:34:25.030Z,53.13
2019-03-23T07:36:53.172Z,52.47
2019-03-23T07:39:27.321Z,51.20
2019-03-23T07:41:51.148Z,49.43
2019-03-23T07:44:21.070Z,54.17
2019-03-23T07:46:57.075Z,47.40
2019-03-23T07:49:26.870Z,47.83
2019-03-23T07:51:56.558Z,47.57
2019-03-23T07:54:27.759Z,47.13
2019-03-23T07:56:58.476Z,43.50
2019-03-23T07:59:26.650Z,50.53
2019-03-23T08:01:55.850Z,45.97
2019-03-23T08:04:25.081Z,49.93
2019-03-23T08:06:55.711Z,47.50
2019-03-23T08:09:23.848Z,48.07
2019-03-23T08:11:52.875Z,48.37
2019-03-23T08:14:21.035Z,49.77
2019-03-23T08:16:49.177Z,44.83
2019-03-23T08:19:17.352Z,48.47
2019-03-23T08:21:45.498Z,49.33
2019-03-23T08:24:15.274Z,49.20
2019-03-23T08:26:48.056Z,43.20
2019-03-23T08:29:16.200Z,43.57
2019-03-23T08:31:44.416Z,42.43
2019-03-23T08:34:12.587Z,44.27
2019-03-23T08:36:40.723Z,41.30
2019-03-23T08:39:10.513Z,43.70
2019-03-23T08:41:38.679Z,41.23
2019-03-23T08:44:07.760Z,42.90
2019-03-23T08:46:35.884Z,40.97
2019-03-23T08:49:06.515Z,46.90
2019-03-23T08:51:34.676Z,44.07
2019-03-23T08:54:02.837Z,41.00
2019-03-23T08:56:31.004Z,42.80
2019-03-23T08:58:59.144Z,42.77
2019-03-23T09:01:27.784Z,42.10
2019-03-23T09:03:55.957Z,38.17
2019-03-23T09:06:24.101Z,43.77
2019-03-23T09:08:52.255Z,40.63
2019-03-23T09:11:20.895Z,39.43
2019-03-23T09:13:49.065Z,44.93
2019-03-23T09:16:17.538Z,35.30
2019-03-23T09:18:45.710Z,34.07
2019-03-23T09:21:13.848Z,36.90
2019-03-23T09:23:42.000Z,34.07
2019-03-23T09:26:10.181Z,36.50
2019-03-23T09:28:38.322Z,33.93
2019-03-23T09:31:07.081Z,34.77
2019-03-23T09:33:35.241Z,35.40
2019-03-23T09:36:03.437Z,33.43
2019-03-23T09:38:31.583Z,31.97
2019-03-23T09:41:00.050Z,36.53
2019-03-23T09:43:28.217Z,34.20
2019-03-23T09:45:56.356Z,30.80
2019-03-23T09:48:24.554Z,33.27
2019-03-23T09:50:52.702Z,27.90
2019-03-23T09:53:21.411Z,18.90
2019-03-23T09:55:51.895Z,21.33
2019-03-23T09:58:20.048Z,32.43
2019-03-23T10:00:48.214Z,32.37
2019-03-23T10:03:16.370Z,27.40
2019-03-23T10:05:44.525Z,28.30
2019-03-23T10:08:12.700Z,25.73
2019-03-23T10:10:40.884Z,26.23
2019-03-23T10:13:09.031Z,24.03
2019-03-23T10:15:37.180Z,26.73
2019-03-23T10:18:05.360Z,21.53
2019-03-23T10:20:33.531Z,24.17
2019-03-23T10:23:01.681Z,20.70
2019-03-23T10:25:29.856Z,19.47
2019-03-23T10:27:58.009Z,21.10
2019-03-23T10:30:26.241Z,21.20
2019-03-23T10:32:54.445Z,17.20
2019-03-23T10:35:22.581Z,18.00
2019-03-23T10:37:50.720Z,21.93
2019-03-23T10:40:20.529Z,15.43
2019-03-23T10:42:48.673Z,16.43
2019-03-23T10:45:16.820Z,19.00
2019-03-23T10:47:45.364Z,15.30
2019-03-23T10:50:13.540Z,17.47
2019-03-23T10:52:41.691Z,14.73
2019-03-23T10:55:09.903Z,18.00
2019-03-23T10:57:38.775Z,11.70
2019-03-23T11:00:08.745Z,20.53
2019-03-23T11:02:36.919Z,16.90
2019-03-23T11:05:05.627Z,17.87
2019-03-23T11:07:33.773Z,16.80
2019-03-23T11:10:01.941Z,12.00
2019-03-23T11:12:30.448Z,18.33
2019-03-23T11:15:01.726Z,12.73
2019-03-23T11:17:29.888Z,13.23
2019-03-23T11:19:58.544Z,19.30
2019-03-23T11:22:26.808Z,16.97
2019-03-23T11:24:56.768Z,15.67
2019-03-23T11:27:24.918Z,20.30
2019-03-23T11:29:53.088Z,17.37
2019-03-23T11:32:21.366Z,19.57
2019-03-23T11:34:49.514Z,11.63
2019-03-23T11:37:17.741Z,20.83
2019-03-23T11:39:45.950Z,14.60
2019-03-23T11:42:14.090Z,12.23
2019-03-23T11:44:42.247Z,12.20
2019-03-23T11:47:10.417Z,13.40
2019-03-23T11:49:39.552Z,14.80
2019-03-23T11:52:07.693Z,15.63
2019-03-23T11:54:35.860Z,15.97
2019-03-23T11:57:04.000Z,16.60
2019-03-23T11:59:32.141Z,14.30
2019-03-23T12:02:00.320Z,15.60
2019-03-23T12:04:28.462Z,15.27
2019-03-23T12:06:56.603Z,16.17
2019-03-23T12:09:24.782Z,17.33
2019-03-23T12:11:52.920Z,17.03
2019-03-23T12:14:21.081Z,16.87
2019-03-23T12:16:49.328Z,15.03
2019-03-23T12:19:17.475Z,21.40
2019-03-23T12:21:45.624Z,19.47
2019-03-23T12:24:15.757Z,22.80
2019-03-23T12:26:44.685Z,13.47
2019-03-23T12:29:12.915Z,14.37
2019-03-23T12:31:41.091Z,14.33
2019-03-23T12:34:09.564Z,11.53
2019-03-23T12:36:37.756Z,20.67
2019-03-23T12:39:06.946Z,15.33
2019-03-23T12:41:35.062Z,14.10
2019-03-23T12:44:03.205Z,12.07
2019-03-23T12:46:31.508Z,11.73
2019-03-23T12:49:01.119Z,12.87
2019-03-23T12:51:29.197Z,11.43
2019-03-23T12:53:57.367Z,13.90
2019-03-23T12:56:25.508Z,15.50
2019-03-23T12:58:55.200Z,14.77
2019-03-23T13:01:23.368Z,20.90
2019-03-23T13:03:51.628Z,12.97
2019-03-23T13:06:19.801Z,16.83
2019-03-23T13:08:48.635Z,15.47
2019-03-23T13:11:23.245Z,21.77
2019-03-23T13:13:46.581Z,10.03
2019-03-23T13:16:14.764Z,16.57
2019-03-23T13:18:42.915Z,13.47
2019-03-23T13:21:11.037Z,13.13
2019-03-23T13:23:39.211Z,14.93
2019-03-23T13:26:07.370Z,17.17
2019-03-23T13:28:35.508Z,11.40
2019-03-23T13:31:03.687Z,13.93
2019-03-23T13:33:32.942Z,11.63
2019-03-23T13:36:01.897Z,13.40
2019-03-23T13:38:30.072Z,12.00
2019-03-23T13:40:58.223Z,29.03
2019-03-23T13:43:26.368Z,18.43
2019-03-23T13:45:56.996Z,13.83
2019-03-23T13:48:25.103Z,16.67
2019-03-23T13:50:53.260Z,19.03
2019-03-23T13:53:21.422Z,11.60
2019-03-23T13:55:49.720Z,11.80
2019-03-23T13:58:17.895Z,15.60
2019-03-23T14:00:46.065Z,13.57
2019-03-23T14:03:14.381Z,12.27
2019-03-23T14:05:42.609Z,12.87
2019-03-23T14:08:10.794Z,10.60
2019-03-23T14:10:40.865Z,20.23
2019-03-23T14:13:11.668Z,12.83
2019-03-23T14:15:43.937Z,12.27
2019-03-23T14:18:13.695Z,14.33
2019-03-23T14:20:43.995Z,15.97
2019-03-23T14:23:14.899Z,12.60
2019-03-23T14:25:46.520Z,18.00
2019-03-23T14:28:15.870Z,15.23
2019-03-23T14:30:44.027Z,11.57
2019-03-23T14:33:12.156Z,11.27
2019-03-23T14:35:40.315Z,13.93
2019-03-23T14:38:08.482Z,13.20
2019-03-23T14:40:36.646Z,15.47
2019-03-23T14:43:05.153Z,11.90
2019-03-23T14:45:33.329Z,9.90
2019-03-23T14:48:01.504Z,12.23
2019-03-23T14:50:29.941Z,8.27
2019-03-23T14:52:58.112Z,13.10
2019-03-23T14:55:26.256Z,10.00
2019-03-23T14:57:55.873Z,12.23
2019-03-23T15:00:34.830Z,11.73
2019-03-23T15:03:04.567Z,12.30
2019-03-23T15:05:32.706Z,11.70
2019-03-23T15:08:04.336Z,11.80
2019-03-23T15:10:35.644Z,10.20
2019-03-23T15:13:04.473Z,12.70
2019-03-23T15:15:32.657Z,12.10
2019-03-23T15:18:00.787Z,10.27
2019-03-23T15:20:28.932Z,14.30
2019-03-23T15:22:57.096Z,11.60
2019-03-23T15:25:25.270Z,13.87
2019-03-23T15:28:05.597Z,15.53
2019-03-23T15:30:34.872Z,14.70
2019-03-23T15:33:04.627Z,14.93
2019-03-23T15:35:32.782Z,12.27
2019-03-23T15:38:00.952Z,14.73
2019-03-23T15:40:29.091Z,14.90
2019-03-23T15:42:57.292Z,16.77
2019-03-23T15:45:25.892Z,11.50
2019-03-23T15:47:54.215Z,16.43
2019-03-23T15:50:22.358Z,13.53
2019-03-23T15:52:50.521Z,9.93
2019-03-23T15:55:18.658Z,16.37
2019-03-23T15:57:46.799Z,12.83
2019-03-23T16:00:17.044Z,14.30
2019-03-23T16:02:45.393Z,16.07
2019-03-23T16:05:15.172Z,16.13
2019-03-23T16:07:43.359Z,13.50
2019-03-23T16:10:11.616Z,7.53
2019-03-23T16:12:40.168Z,14.47
2019-03-23T16:15:09.430Z,14.60
2019-03-23T16:17:37.564Z,18.33
2019-03-23T16:20:09.443Z,18.73
2019-03-23T16:22:37.614Z,20.70
2019-03-23T16:25:08.328Z,19.83
2019-03-23T16:27:38.644Z,17.77
2019-03-23T16:30:07.818Z,14.97
2019-03-23T16:32:36.127Z,12.00
2019-03-23T16:35:05.843Z,16.80
2019-03-23T16:37:34.169Z,17.67
2019-03-23T16:40:02.549Z,17.35
2019-03-23T16:42:30.700Z,17.87
2019-03-23T16:44:59.240Z,13.13
2019-03-23T16:47:27.387Z,18.48
2019-03-23T16:49:55.562Z,17.67
2019-03-23T16:52:23.745Z,15.50
2019-03-23T16:54:51.888Z,17.93
2019-03-23T16:57:20.059Z,18.87
2019-03-23T16:59:48.233Z,15.40
2019-03-23T17:02:16.639Z,17.67
2019-03-23T17:04:44.777Z,21.80
2019-03-23T17:07:12.959Z,20.47
2019-03-23T17:09:41.096Z,14.40
2019-03-23T17:12:11.478Z,17.02
2019-03-23T17:14:39.652Z,15.23
2019-03-23T17:17:07.796Z,10.60
2019-03-23T17:19:36.640Z,19.03
2019-03-23T17:22:05.188Z,25.00
2019-03-23T17:24:33.358Z,11.97
2019-03-23T17:27:01.484Z,23.73
2019-03-23T17:29:30.562Z,28.77
2019-03-23T17:32:00.170Z,11.97
2019-03-23T17:34:28.347Z,15.80
2019-03-23T17:36:56.508Z,17.50
2019-03-23T17:39:24.659Z,14.90
2019-03-23T17:41:52.788Z,14.43
2019-03-23T17:44:20.964Z,13.37
2019-03-23T17:46:49.220Z,18.07
2019-03-23T17:49:17.367Z,21.57
2019-03-23T17:51:45.536Z,16.03
2019-03-23T17:54:13.675Z,15.47
2019-03-23T17:56:41.858Z,14.53
2019-03-23T17:59:09.976Z,17.50
2019-03-23T18:01:38.122Z,9.47
2019-03-23T18:04:06.251Z,15.67
2019-03-23T18:06:34.448Z,15.57
2019-03-23T18:09:04.027Z,15.03
2019-03-23T18:11:32.191Z,14.07
2019-03-23T18:14:00.326Z,21.30
2019-03-23T18:16:28.477Z,14.37
2019-03-23T18:18:56.623Z,15.70
2019-03-23T18:21:24.861Z,22.90
2019-03-23T18:23:53.032Z,16.00
2019-03-23T18:26:21.144Z,18.83
2019-03-23T18:28:49.338Z,16.90
2019-03-23T18:31:17.586Z,20.00
2019-03-23T18:33:45.888Z,13.53
2019-03-23T18:36:14.165Z,18.17
2019-03-23T18:38:42.300Z,20.60
2019-03-23T18:41:10.441Z,18.40
2019-03-23T18:43:38.600Z,16.10
2019-03-23T18:46:06.832Z,28.43
2019-03-23T18:48:35.672Z,19.37
2019-03-23T18:51:06.108Z,23.17
2019-03-23T18:53:34.265Z,23.23
2019-03-23T18:56:02.411Z,19.13
2019-03-23T18:58:30.890Z,22.10
2019-03-23T19:01:01.272Z,14.43
2019-03-23T19:03:29.688Z,19.20
2019-03-23T19:05:58.514Z,18.63
2019-03-23T19:08:26.679Z,10.80
2019-03-23T19:10:55.109Z,18.30
2019-03-23T19:13:23.436Z,20.87
2019-03-23T19:15:51.592Z,16.10
2019-03-23T19:18:20.042Z,18.80
2019-03-23T19:20:55.958Z,20.43
2019-03-23T19:23:23.954Z,18.13
2019-03-23T19:25:54.724Z,22.83
2019-03-23T19:28:28.372Z,15.90
2019-03-23T19:30:56.505Z,25.47
2019-03-23T19:33:44.128Z,18.57
2019-03-23T19:36:12.263Z,21.60
2019-03-23T19:38:40.396Z,20.20
2019-03-23T19:41:08.559Z,20.47
2019-03-23T19:43:47.985Z,24.90
2019-03-23T19:46:07.314Z,23.43
2019-03-23T19:48:36.191Z,23.90
2019-03-23T19:51:04.332Z,17.47
2019-03-23T19:53:32.489Z,21.27
2019-03-23T19:56:00.663Z,24.83
2019-03-23T19:58:28.808Z,23.27
2019-03-23T20:00:56.944Z,22.67
2019-03-23T20:03:25.114Z,22.63
2019-03-23T20:05:53.250Z,17.10
2019-03-23T20:08:21.420Z,18.83
2019-03-23T20:10:49.592Z,23.40
2019-03-23T20:13:17.854Z,20.70
2019-03-23T20:15:45.985Z,18.50
2019-03-23T20:18:14.151Z,17.87
2019-03-23T20:20:42.284Z,32.70
2019-03-23T20:23:10.426Z,26.63
2019-03-23T20:25:39.775Z,20.50
2019-03-23T20:28:08.144Z,27.73
2019-03-23T20:30:37.104Z,23.33
2019-03-23T20:33:05.560Z,18.53
2019-03-23T20:35:33.829Z,19.47
2019-03-23T20:38:01.966Z,26.90
2019-03-23T20:40:30.145Z,22.53
2019-03-23T20:42:58.418Z,21.10
2019-03-23T20:45:27.631Z,26.87
2019-03-23T20:47:55.808Z,25.83
2019-03-23T20:50:23.944Z,19.30
2019-03-23T20:52:52.076Z,25.33
2019-03-23T20:55:23.948Z,24.13
2019-03-23T20:57:52.658Z,17.33
2019-03-23T21:00:20.792Z,19.37
2019-03-23T21:02:48.956Z,21.80
2019-03-23T21:05:17.231Z,27.07
2019-03-23T21:07:45.517Z,25.33
2019-03-23T21:10:13.674Z,19.23
2019-03-23T21:12:41.817Z,20.13
2019-03-23T21:15:09.960Z,28.77
2019-03-23T21:17:50.448Z,24.80
2019-03-23T21:20:07.916Z,25.90
2019-03-23T21:22:36.054Z,26.10
2019-03-23T21:25:05.796Z,22.00
2019-03-23T21:27:33.933Z,30.20
2019-03-23T21:30:02.118Z,21.30
2019-03-23T21:32:30.279Z,26.47
2019-03-23T21:34:58.427Z,23.13
2019-03-23T21:37:26.864Z,23.87
2019-03-23T21:39:55.036Z,21.97
2019-03-23T21:42:23.177Z,22.53
2019-03-23T21:44:51.308Z,21.73
2019-03-23T21:47:19.481Z,26.27
2019-03-23T21:49:47.618Z,22.57
2019-03-23T21:52:15.849Z,26.50
2019-03-23T21:54:44.030Z,21.20
2019-03-23T21:57:12.508Z,23.50
2019-03-23T21:59:40.644Z,18.57
2019-03-23T22:02:08.816Z,19.33
2019-03-23T22:04:38.131Z,18.90
2019-03-23T22:07:06.279Z,17.70
2019-03-23T22:09:34.443Z,21.93
2019-03-23T22:12:02.586Z,19.07
2019-03-23T22:14:41.163Z,17.67
2019-03-23T22:17:00.585Z,24.35
2019-03-23T22:19:28.725Z,21.73
2019-03-23T22:21:56.884Z,21.60
2019-03-23T22:24:25.071Z,17.67
2019-03-23T22:26:53.217Z,25.80
2019-03-23T22:29:21.357Z,18.63
2019-03-23T22:31:49.527Z,19.17
2019-03-23T22:34:17.701Z,26.67
2019-03-23T22:36:45.848Z,22.60
2019-03-23T22:39:14.013Z,16.70
2019-03-23T22:41:42.157Z,19.17
2019-03-23T22:44:10.300Z,20.03
2019-03-23T22:46:38.600Z,21.97
2019-03-23T22:49:06.746Z,19.20
2019-03-23T22:51:34.883Z,26.60
2019-03-23T22:54:03.056Z,24.27
2019-03-23T22:56:31.195Z,20.30
2019-03-23T22:58:59.329Z,23.10
2019-03-23T23:01:27.506Z,20.17
2019-03-23T23:03:55.645Z,23.07
2019-03-23T23:06:23.786Z,20.97
2019-03-23T23:08:51.956Z,19.43
2019-03-23T23:11:20.089Z,25.33
2019-03-23T23:13:48.232Z,23.27
2019-03-23T23:16:16.404Z,23.77
2019-03-23T23:18:44.552Z,21.67
2019-03-23T23:21:13.000Z,19.83
2019-03-23T23:23:41.164Z,21.00
2019-03-23T23:26:09.327Z,24.13
2019-03-23T23:28:37.456Z,24.00
2019-03-23T23:31:05.645Z,25.20
2019-03-23T23:33:33.776Z,28.40
2019-03-23T23:36:01.918Z,25.93
2019-03-23T23:38:30.098Z,27.15
2019-03-23T23:40:58.236Z,21.73
2019-03-23T23:43:26.372Z,22.47
2019-03-23T23:45:54.552Z,16.50
2019-03-23T23:48:22.712Z,23.47
2019-03-23T23:50:50.832Z,21.20
2019-03-23T23:53:19.005Z,20.93
2019-03-23T23:55:47.176Z,23.47
2019-03-23T23:58:15.336Z,30.50
